Time;durP1;ratioP1;P1;durP2;ratioP2;P2;SDS_P1;SDS_P2;PMS_P1;PMS_P2;Temp;Humidity;BMP_temperature;BMP_pressure;BME280_temperature;BME280_humidity;BME280_pressure;Samples;Min_cycle;Max_cycle;Signal;HPM_P1;HPM_P2
2022/09/08 00:00:32;;;;;;;19.52;4.00;;;;;;;17.61;100.00;100414.03;5076412;28;20460;-90
2022/09/08 00:03:01;;;;;;;20.35;4.07;;;;;;;17.65;100.00;100434.03;5076046;28;20048;-91
2022/09/08 00:05:30;;;;;;;22.00;4.57;;;;;;;17.60;100.00;100402.59;5076003;28;20094;-91
2022/09/08 00:07:58;;;;;;;19.48;4.40;;;;;;;17.68;100.00;100415.28;5078066;28;20109;-91
2022/09/08 00:10:26;;;;;;;23.30;5.10;;;;;;;17.50;100.00;100406.03;5097685;28;20052;-91
2022/09/08 00:12:53;;;;;;;17.90;4.22;;;;;;;17.67;100.00;100428.63;5079883;28;20448;-92
2022/09/08 00:15:20;;;;;;;18.15;4.28;;;;;;;17.36;100.00;100372.63;5079630;28;20047;-91
2022/09/08 00:17:47;;;;;;;21.23;5.88;;;;;;;17.26;100.00;100396.22;5080051;28;20056;-91
2022/09/08 00:20:15;;;;;;;22.60;5.78;;;;;;;17.46;100.00;100406.25;5079549;28;20105;-91
2022/09/08 00:22:41;;;;;;;17.73;4.00;;;;;;;17.51;100.00;100395.34;5096892;28;20044;-92
2022/09/08 00:25:08;;;;;;;23.80;5.68;;;;;;;17.48;100.00;100402.66;5079339;28;20052;-91
2022/09/08 00:27:35;;;;;;;15.45;4.13;;;;;;;17.51;100.00;100386.53;5078953;28;20401;-91
2022/09/08 00:30:02;;;;;;;13.55;4.57;;;;;;;17.48;100.00;100374.38;5090870;28;20077;-91
2022/09/08 00:32:29;;;;;;;18.08;4.45;;;;;;;17.57;100.00;100394.88;5098953;28;20044;-91
2022/09/08 00:34:58;;;;;;;24.02;5.50;;;;;;;17.54;100.00;100395.09;5098797;28;20051;-90
2022/09/08 00:37:26;;;;;;;15.07;4.38;;;;;;;17.60;100.00;100402.59;5099023;28;20496;-91
2022/09/08 00:39:53;;;;;;;21.77;5.60;;;;;;;17.81;100.00;100429.34;5098893;28;20092;-90
2022/09/08 00:42:20;;;;;;;16.75;4.82;;;;;;;17.51;100.00;100387.41;5098743;28;20383;-90
2022/09/08 00:44:49;;;;;;;26.42;6.18;;;;;;;17.71;100.00;100417.72;5098705;28;20052;-91
2022/09/08 00:47:43;;;;;;;15.73;4.78;;;;;;;17.55;100.00;100399.44;5099122;28;20143;-90
2022/09/08 00:50:17;;;;;;;19.02;5.05;;;;;;;17.66;100.00;100406.59;5061441;28;20105;-90
2022/09/08 00:53:07;;;;;;;23.73;6.07;;;;;;;17.70;100.00;100418.66;5098463;28;20090;-90
2022/09/08 00:55:39;;;;;;;23.35;6.07;;;;;;;17.63;100.00;100412.94;5098662;28;20431;-90
2022/09/08 00:58:07;;;;;;;16.63;5.05;;;;;;;17.31;100.00;100367.63;5098509;28;20057;-90
2022/09/08 01:00:40;;;;;;;17.08;5.57;;;;;;;17.60;100.00;100415.84;5098839;28;20101;-90
2022/09/08 01:03:13;;;;;;;17.98;5.53;;;;;;;17.43;100.00;100387.09;5094279;28;20048;-90
2022/09/08 01:05:57;;;;;;;23.80;5.78;;;;;;;17.56;100.00;100393.19;5078351;28;20066;-90
2022/09/08 01:14:53;;;;;;;20.05;5.78;;;;;;;17.62;100.00;100434.28;5106098;28;20449;-90
2022/09/08 01:17:26;;;;;;;13.63;3.50;;;;;;;17.18;100.00;100386.19;5068568;28;20055;-84
2022/09/08 01:19:53;;;;;;;;;;;;;;;17.54;100.00;100439.25;5075004;28;20056;-86
2022/09/08 01:22:26;;;;;;;12.43;3.33;;;;;;;17.42;100.00;100435.66;5076109;28;19924;-86
2022/09/08 01:25:11;;;;;;;13.07;4.15;;;;;;;17.50;100.00;100435.16;5071408;28;20452;-87
2022/09/08 01:27:39;;;;;;;15.68;4.03;;;;;;;17.37;100.00;100404.25;5066217;28;20065;-87
2022/09/08 01:30:10;;;;;;;14.00;3.72;;;;;;;17.57;100.00;100429.28;5086109;28;20106;-87
2022/09/08 01:32:42;;;;;;;13.63;3.55;;;;;;;17.32;100.00;100381.75;5070784;28;20094;-88
2022/09/08 01:35:10;;;;;;;17.60;3.88;;;;;;;17.41;100.00;100411.03;5067943;28;20109;-87
2022/09/08 01:37:36;;;;;;;14.68;3.85;;;;;;;17.48;100.00;100413.25;5066850;28;20062;-88
2022/09/08 01:40:04;;;;;;;20.48;4.38;;;;;;;17.58;100.00;100420.41;5077310;28;20113;-89
2022/09/08 01:42:31;;;;;;;17.25;3.58;;;;;;;17.58;100.00;100419.53;5078276;28;20478;-89
2022/09/08 01:44:58;;;;;;;14.70;3.65;;;;;;;17.42;100.00;100401.28;5078457;28;20048;-90
2022/09/08 01:47:25;;;;;;;17.45;4.88;;;;;;;17.42;100.00;100403.91;5078724;28;20044;-91
2022/09/08 01:49:51;;;;;;;21.30;5.70;;;;;;;17.45;100.00;100416.94;5096005;28;20056;-90
2022/09/08 01:52:18;;;;;;;26.15;5.18;;;;;;;17.41;100.00;100410.19;5095569;28;20044;-90
2022/09/08 01:54:45;;;;;;;20.70;6.05;;;;;;;17.63;100.00;100441.25;5078221;28;20056;-90
2022/09/08 01:57:11;;;;;;;26.70;7.07;;;;;;;17.22;100.00;100390.31;5078016;28;20052;-92
2022/09/08 01:59:38;;;;;;;19.13;5.35;;;;;;;17.43;100.00;100405.63;5077468;28;20048;-91
2022/09/08 02:02:05;;;;;;;21.05;5.15;;;;;;;17.50;100.00;100406.88;5077544;28;20128;-91
2022/09/08 02:04:32;;;;;;;27.20;7.07;;;;;;;17.38;100.00;100428.91;5095720;28;20058;-91
2022/09/08 02:06:59;;;;;;;31.65;7.10;;;;;;;17.26;100.00;100422.69;5077684;28;20048;-91
2022/09/08 02:09:26;;;;;;;22.30;5.88;;;;;;;17.23;100.00;100405.25;5078013;28;20056;-91
2022/09/08 02:11:52;;;;;;;18.63;4.13;;;;;;;17.39;100.00;100405.00;5077413;28;20104;-92
2022/09/08 02:14:19;;;;;;;16.58;4.03;;;;;;;17.22;100.00;100402.69;5077773;28;20398;-91
2022/09/08 02:16:46;;;;;;;24.80;5.90;;;;;;;17.20;100.00;100386.09;5077457;28;20093;-91
2022/09/08 02:19:12;;;;;;;11.50;3.25;;;;;;;17.51;100.00;100427.09;5077394;28;20055;-90
2022/09/08 02:21:39;;;;;;;14.52;3.88;;;;;;;17.31;100.00;100388.81;5076782;28;20044;-90
2022/09/08 02:24:06;;;;;;;14.98;4.28;;;;;;;17.25;100.00;100383.97;5076968;28;20055;-90
2022/09/08 02:26:33;;;;;;;13.52;4.25;;;;;;;17.62;100.00;100419.22;5076869;28;20052;-90
2022/09/08 02:29:00;;;;;;;22.00;4.93;;;;;;;17.56;100.00;100422.28;5076860;28;20051;-90
2022/09/08 02:31:27;;;;;;;20.65;5.88;;;;;;;17.16;100.00;100377.53;5076304;28;20056;-90
2022/09/08 02:33:55;;;;;;;19.08;5.95;;;;;;;17.33;100.00;100410.72;5078164;28;20504;-90
2022/09/08 02:36:22;;;;;;;18.05;4.63;;;;;;;17.42;100.00;100390.69;5089026;28;20051;-90
2022/09/08 02:38:51;;;;;;;13.88;4.15;;;;;;;17.57;100.00;100417.88;5056575;28;20505;-89
2022/09/08 02:41:17;;;;;;;21.42;6.38;;;;;;;17.23;100.00;100394.66;5070367;28;20135;-89
2022/09/08 02:43:44;;;;;;;16.27;5.07;;;;;;;17.48;100.00;100403.50;5094297;28;20378;-89
2022/09/08 02:46:11;;;;;;;24.95;5.85;;;;;;;17.17;100.00;100358.03;5076071;28;20460;-89
2022/09/08 02:48:39;;;;;;;24.23;6.43;;;;;;;17.48;100.00;100429.13;5112609;28;20116;-89
2022/09/08 02:51:11;;;;;;;25.42;6.47;;;;;;;17.42;100.00;100428.59;5082817;28;20052;-89
2022/09/08 02:53:39;;;;;;;14.60;5.25;;;;;;;17.60;100.00;100423.78;5076371;28;20105;-89
2022/09/08 02:56:07;;;;;;;16.70;6.20;;;;;;;17.45;100.00;100407.19;5076616;28;20044;-89
2022/09/08 02:58:34;;;;;;;16.75;5.13;;;;;;;17.46;100.00;100427.41;5076194;28;20051;-89
2022/09/08 03:01:02;;;;;;;15.65;4.97;;;;;;;17.54;100.00;100418.09;5076091;28;20090;-89
2022/09/08 03:03:29;;;;;;;22.25;5.00;;;;;;;17.46;100.00;100410.69;5076716;28;20378;-89
2022/09/08 03:05:56;;;;;;;15.02;4.30;;;;;;;17.25;100.00;100370.75;5076175;28;20094;-89
2022/09/08 03:08:23;;;;;;;23.00;5.10;;;;;;;17.42;100.00;100402.13;5076014;28;20544;-90
2022/09/08 03:10:51;;;;;;;21.65;5.30;;;;;;;17.22;100.00;100395.59;5076087;28;20060;-89
2022/09/08 03:13:17;;;;;;;19.50;5.22;;;;;;;17.18;100.00;100391.50;5076198;28;20048;-89
2022/09/08 03:15:45;;;;;;;20.25;5.10;;;;;;;17.55;100.00;100412.69;5088255;28;20051;-90
2022/09/08 03:18:12;;;;;;;27.20;5.07;;;;;;;17.26;100.00;100377.72;5075490;28;20122;-90
2022/09/08 03:20:40;;;;;;;16.83;4.10;;;;;;;17.56;100.00;100419.66;5076048;28;20044;-90
2022/09/08 03:23:06;;;;;;;15.07;4.35;;;;;;;17.38;100.00;100395.34;5076147;28;20118;-90
2022/09/08 03:25:36;;;;;;;26.02;5.38;;;;;;;17.22;100.00;100377.06;5075898;28;20103;-90
2022/09/08 03:28:04;;;;;;;23.85;5.63;;;;;;;17.14;100.00;100374.16;5072489;28;20048;-89
2022/09/08 03:30:32;;;;;;;16.35;5.13;;;;;;;17.26;100.00;100383.88;5105987;28;20056;-90
2022/09/08 03:32:59;;;;;;;18.33;4.85;;;;;;;17.18;100.00;100375.63;5075896;28;20436;-90
2022/09/08 03:35:26;;;;;;;24.85;5.97;;;;;;;17.36;100.00;100422.91;5071059;28;20053;-89
2022/09/08 03:37:54;;;;;;;21.13;4.88;;;;;;;17.46;100.00;100411.53;5069006;28;20490;-89
2022/09/08 03:40:21;;;;;;;21.13;5.07;;;;;;;17.19;100.00;100368.50;5096252;28;20077;-89
2022/09/08 03:42:48;;;;;;;19.27;5.88;;;;;;;17.04;100.00;100360.72;5075537;28;20390;-89
2022/09/08 03:45:17;;;;;;;22.90;6.18;;;;;;;17.03;100.00;100379.34;5068186;28;20052;-89
2022/09/08 03:47:45;;;;;;;17.95;6.28;;;;;;;17.17;100.00;100404.81;5074617;28;20051;-89
2022/09/08 03:50:15;;;;;;;18.05;5.00;;;;;;;17.38;100.00;100426.28;5079730;28;20047;-89
2022/09/08 03:52:42;;;;;;;20.08;5.40;;;;;;;17.36;100.00;100410.50;5080169;28;20701;-89
2022/09/08 03:55:11;;;;;;;17.70;5.22;;;;;;;17.44;100.00;100413.44;5079636;28;20101;-89
2022/09/08 03:57:38;;;;;;;18.40;5.95;;;;;;;17.06;100.00;100406.41;5075012;28;20101;-89
2022/09/08 04:00:08;;;;;;;22.58;6.25;;;;;;;17.11;100.00;100406.09;5079420;28;20048;-90
2022/09/08 04:02:35;;;;;;;31.90;6.70;;;;;;;16.82;100.00;100360.50;5097015;28;20039;-90
2022/09/08 04:05:03;;;;;;;23.77;5.72;;;;;;;16.99;100.00;100384.00;5078747;28;20048;-89
2022/09/08 04:07:30;;;;;;;21.38;5.45;;;;;;;17.17;100.00;100405.66;5079064;28;20043;-90
2022/09/08 04:09:57;;;;;;;18.08;5.72;;;;;;;16.91;100.00;100378.41;5093959;28;20473;-90
2022/09/08 04:12:25;;;;;;;22.63;5.70;;;;;;;17.15;100.00;100394.34;5068610;28;20531;-90
2022/09/08 04:14:55;;;;;;;21.75;6.47;;;;;;;16.81;100.00;100370.22;5077501;28;20048;-90
2022/09/08 04:17:27;;;;;;;25.77;7.60;;;;;;;16.89;100.00;100373.22;5067770;28;20044;-89
2022/09/08 04:19:54;;;;;;;21.20;5.25;;;;;;;17.07;100.00;100386.97;5092426;28;20109;-89
2022/09/08 04:22:22;;;;;;;21.02;5.72;;;;;;;17.22;100.00;100410.63;5078030;28;20074;-89
2022/09/08 04:24:49;;;;;;;21.17;5.82;;;;;;;16.92;100.00;100371.31;5076521;28;20051;-90
2022/09/08 04:27:22;;;;;;;16.73;5.40;;;;;;;16.88;100.00;100368.88;5083262;28;20040;-90
2022/09/08 04:29:50;;;;;;;22.33;5.78;;;;;;;16.96;100.00;100396.59;5090934;28;20117;-90
2022/09/08 04:32:18;;;;;;;18.00;5.00;;;;;;;16.83;100.00;100371.00;5083971;28;20123;-88
2022/09/08 04:34:49;;;;;;;15.60;4.95;;;;;;;16.99;100.00;100368.13;5116326;28;20048;-89
2022/09/08 04:37:17;;;;;;;22.00;5.32;;;;;;;16.91;100.00;100391.63;5075590;28;20060;-90
2022/09/08 04:39:44;;;;;;;21.00;4.93;;;;;;;17.13;100.00;100412.13;5086547;28;20542;-89
2022/09/08 04:42:11;;;;;;;19.90;5.15;;;;;;;16.82;100.00;100353.44;5075538;28;20059;-91
2022/09/08 04:44:38;;;;;;;17.42;5.00;;;;;;;17.07;100.00;100397.53;5062078;28;20040;-90
2022/09/08 04:47:05;;;;;;;18.30;5.28;;;;;;;16.88;100.00;100384.75;5077469;28;20502;-88
2022/09/08 04:49:31;;;;;;;13.88;4.60;;;;;;;17.13;100.00;100392.78;5077026;28;20059;-90
2022/09/08 04:51:58;;;;;;;19.10;5.55;;;;;;;17.01;100.00;100392.66;5086422;28;20052;-90
2022/09/08 04:54:25;;;;;;;26.98;5.60;;;;;;;17.01;100.00;100392.66;5088948;28;20101;-90
2022/09/08 04:56:51;;;;;;;17.85;5.25;;;;;;;17.02;100.00;100396.19;5077466;28;20051;-89
2022/09/08 04:59:18;;;;;;;17.83;5.22;;;;;;;17.05;100.00;100403.88;5077566;28;20051;-90
2022/09/08 05:01:45;;;;;;;19.15;5.68;;;;;;;16.97;100.00;100366.56;5093803;28;20431;-89
2022/09/08 05:04:12;;;;;;;20.20;6.05;;;;;;;16.81;100.00;100372.88;5077209;28;20120;-91
2022/09/08 05:06:38;;;;;;;29.13;6.47;;;;;;;17.04;100.00;100394.25;5076279;28;20052;-91
2022/09/08 05:09:05;;;;;;;19.73;5.90;;;;;;;16.70;100.00;100386.84;5066844;28;20125;-91
2022/09/08 05:11:33;;;;;;;20.77;5.72;;;;;;;17.02;100.00;100422.63;5089660;28;20045;-90
2022/09/08 05:14:00;;;;;;;22.42;4.65;;;;;;;16.99;100.00;100407.78;5088228;28;20077;-91
2022/09/08 05:16:28;;;;;;;15.57;4.57;;;;;;;16.95;100.00;100395.75;5075856;28;20059;-90
2022/09/08 05:19:00;;;;;;;14.00;3.88;;;;;;;17.01;100.00;100397.13;5074710;28;20105;-90
2022/09/08 05:21:29;;;;;;;11.68;4.32;;;;;;;17.14;100.00;100405.91;5089843;28;20056;-90
2022/09/08 05:23:56;;;;;;;18.52;4.10;;;;;;;17.18;100.00;100411.81;5069437;28;20044;-91
2022/09/08 05:26:24;;;;;;;13.88;3.22;;;;;;;17.07;100.00;100402.00;5066511;28;20501;-90
2022/09/08 05:28:52;;;;;;;25.55;4.53;;;;;;;16.76;100.00;100366.22;5090825;28;20414;-90
2022/09/08 05:31:22;;;;;;;19.58;4.30;;;;;;;17.20;100.00;100417.84;5070086;28;20047;-90
2022/09/08 05:33:50;;;;;;;24.42;5.63;;;;;;;16.67;100.00;100355.31;5060692;28;20105;-90
2022/09/08 05:36:35;;;;;;;14.80;3.88;;;;;;;17.03;100.00;100396.06;5057357;28;20066;-91
2022/09/08 05:39:05;;;;;;;12.80;3.33;;;;;;;17.14;100.00;100413.84;5065825;28;20486;-91
2022/09/08 05:41:32;;;;;;;18.05;4.07;;;;;;;17.11;100.00;100410.56;5074195;28;20045;-90
2022/09/08 05:44:00;;;;;;;19.38;4.30;;;;;;;17.07;100.00;100389.59;5073409;28;20094;-90
2022/09/08 05:46:27;;;;;;;11.02;3.70;;;;;;;16.98;100.00;100374.38;5073410;28;20083;-89
2022/09/08 05:49:00;;;;;;;14.52;4.72;;;;;;;17.06;100.00;100417.00;5074716;28;20052;-89
2022/09/08 05:51:27;;;;;;;18.13;5.00;;;;;;;17.07;100.00;100402.00;5089720;28;20048;-89
2022/09/08 05:53:57;;;;;;;15.95;4.25;;;;;;;17.03;100.00;100406.66;5072848;28;20297;-89
2022/09/08 05:56:24;;;;;;;16.25;3.95;;;;;;;17.05;100.00;100417.09;5087559;28;20486;-89
2022/09/08 05:58:53;;;;;;;17.23;4.57;;;;;;;17.26;100.00;100425.31;5075835;28;20113;-89
2022/09/08 06:01:26;;;;;;;19.75;4.70;;;;;;;17.21;100.00;100422.16;5087307;28;20052;-88
2022/09/08 06:03:53;;;;;;;19.40;5.00;;;;;;;16.97;100.00;100427.38;5092442;28;20059;-87
2022/09/08 06:06:21;;;;;;;21.35;5.43;;;;;;;17.08;100.00;100417.72;5083674;28;20052;-89
2022/09/08 06:08:48;;;;;;;23.02;5.60;;;;;;;16.94;100.00;100386.13;5080887;28;20052;-89
2022/09/08 06:11:24;;;;;;;24.65;6.20;;;;;;;17.11;100.00;100407.91;5078448;28;20047;-87
2022/09/08 06:13:52;;;;;;;18.55;4.32;;;;;;;16.75;100.00;100356.59;5087846;28;20062;-87
2022/09/08 06:16:20;;;;;;;22.55;5.68;;;;;;;17.16;100.00;100413.72;5079935;28;20052;-90
2022/09/08 06:18:48;;;;;;;23.20;5.50;;;;;;;16.63;100.00;100335.34;5084912;28;20105;-89
2022/09/08 06:21:21;;;;;;;19.30;4.80;;;;;;;17.05;100.00;100391.50;5075275;28;20446;-87
2022/09/08 06:23:53;;;;;;;18.83;4.15;;;;;;;16.70;100.00;100338.41;5074603;28;20056;-85
2022/09/08 06:26:30;;;;;;;20.27;4.97;;;;;;;17.14;100.00;100420.91;5074192;28;20036;-87
2022/09/08 06:29:35;;;;;;;17.98;4.50;;;;;;;17.19;100.00;100413.50;5080319;28;20051;-86
2022/09/08 06:32:04;;;;;;;18.17;4.95;;;;;;;16.97;100.00;100355.97;5073429;28;20040;-87
2022/09/08 06:34:39;;;;;;;22.08;5.45;;;;;;;17.17;100.00;100421.53;5079114;28;20056;-88
2022/09/08 06:37:11;;;;;;;18.05;5.00;;;;;;;17.24;100.00;100414.00;5099173;28;20051;-88
2022/09/08 06:39:54;;;;;;;22.83;5.03;;;;;;;16.99;100.00;100389.28;5078835;28;20045;-86
2022/09/08 06:42:35;;;;;;;25.23;5.75;;;;;;;17.17;100.00;100434.75;5084925;28;20048;-87
2022/09/08 06:45:09;;;;;;;18.83;5.25;;;;;;;17.23;100.00;100421.13;5069447;28;20044;-87
2022/09/08 06:47:44;;;;;;;19.10;5.55;;;;;;;17.04;100.00;100386.34;5081935;28;20052;-87
2022/09/08 06:50:15;;;;;;;21.42;5.93;;;;;;;17.20;100.00;100442.47;5080822;28;20051;-88
2022/09/08 06:52:47;;;;;;;29.30;6.57;;;;;;;17.18;100.00;100432.97;5080702;28;20048;-86
2022/09/08 06:56:02;;;;;;;16.17;5.28;;;;;;;17.36;100.00;100439.59;5082685;28;20044;-87
2022/09/08 06:58:55;;;;;;;21.05;6.43;;;;;;;17.40;100.00;100449.00;5079073;28;20105;-87
2022/09/08 07:01:28;;;;;;;17.58;5.97;;;;;;;17.36;100.00;100426.38;5082271;28;20052;-87
2022/09/08 07:04:26;;;;;;;20.70;6.32;;;;;;;17.25;100.00;100402.50;5078153;28;20067;-89
2022/09/08 07:07:23;;;;;;;16.55;5.60;;;;;;;17.41;100.00;100424.25;5075914;28;20394;-87
2022/09/08 07:09:50;;;;;;;18.77;6.45;;;;;;;17.40;100.00;100427.84;5060302;28;20053;-88
2022/09/08 07:12:26;;;;;;;20.73;6.72;;;;;;;17.06;100.00;100379.97;5076997;28;20043;-88
2022/09/08 07:15:08;;;;;;;16.73;5.88;;;;;;;17.22;100.00;100398.25;5075607;28;20043;-88
2022/09/08 07:17:49;;;;;;;17.08;5.65;;;;;;;17.44;100.00;100413.44;5072828;28;20490;-89
2022/09/08 07:20:16;;;;;;;22.90;6.93;;;;;;;17.50;100.00;100428.03;5083812;28;20055;-89
2022/09/08 07:22:48;;;;;;;18.95;6.40;;;;;;;17.55;100.00;100407.38;5101122;28;20052;-88
2022/09/08 07:25:37;;;;;;;20.33;6.55;;;;;;;17.45;100.00;100374.59;5086777;28;20474;-89
2022/09/08 07:28:08;;;;;;;16.17;6.00;;;;;;;17.51;100.00;100387.41;5078828;28;20048;-87
2022/09/08 07:30:36;;;;;;;15.85;5.13;;;;;;;17.42;100.00;100369.50;5067478;28;20055;-87
2022/09/08 07:33:23;;;;;;;20.13;5.90;;;;;;;17.59;100.00;100392.97;5082157;28;20052;-88
2022/09/08 07:36:13;;;;;;;17.20;5.15;;;;;;;17.53;100.00;100397.84;5073347;28;20453;-89
2022/09/08 07:38:47;;;;;;;12.55;4.88;;;;;;;17.25;100.00;100357.50;5083474;28;20110;-88
2022/09/08 07:41:24;;;;;;;17.55;6.28;;;;;;;17.66;100.00;100422.50;5078753;28;20101;-88
2022/09/08 07:43:56;;;;;;;15.55;5.97;;;;;;;17.54;100.00;100386.31;5075287;28;20074;-89
2022/09/08 07:47:05;;;;;;;15.70;4.22;;;;;;;17.76;100.00;100414.72;5068687;28;20040;-88
2022/09/08 07:49:56;;;;;;;17.83;4.72;;;;;;;17.80;100.00;100424.16;5057327;28;20080;-88
2022/09/08 07:53:00;;;;;;;22.40;5.25;;;;;;;17.81;100.00;100429.34;5074283;28;20045;-87
2022/09/08 07:55:39;;;;;;;20.63;6.32;;;;;;;17.52;100.00;100406.75;5075245;28;20044;-89
2022/09/08 07:58:32;;;;;;;18.33;6.55;;;;;;;17.67;100.00;100432.13;5077508;28;20082;-88
2022/09/08 08:01:36;;;;;;;19.35;6.53;;;;;;;17.63;100.00;100410.31;5084374;28;20540;-88
2022/09/08 08:04:03;;;;;;;21.70;6.03;;;;;;;17.43;100.00;100374.69;5007728;28;20500;-88
2022/09/08 08:06:38;;;;;;;18.75;6.25;;;;;;;17.75;100.00;100429.75;5083338;28;20056;-88
2022/09/08 08:09:20;;;;;;;17.88;5.22;;;;;;;17.88;100.00;100427.09;5088549;28;20052;-88
2022/09/08 08:12:06;;;;;;;15.40;5.07;;;;;;;18.01;100.00;100430.53;5082886;28;20044;-89
2022/09/08 08:14:32;;;;;;;15.73;4.90;;;;;;;17.65;100.00;100368.72;5080970;28;20413;-89
2022/09/08 08:17:30;;;;;;;22.45;6.95;;;;;;;17.90;100.00;100426.97;5078744;28;20124;-89
2022/09/08 08:20:28;;;;;;;13.43;4.25;;;;;;;18.07;100.00;100428.41;5080597;28;20098;-88
2022/09/08 08:23:00;;;;;;;13.38;4.95;;;;;;;18.06;100.00;100429.34;5081776;28;20052;-88
2022/09/08 08:25:34;;;;;;;21.48;6.65;;;;;;;17.82;100.00;100425.72;5080658;28;20044;-88
2022/09/08 08:28:01;;;;;;;22.60;6.13;;;;;;;17.99;100.00;100423.69;5078430;28;20048;-89
2022/09/08 08:30:40;;;;;;;16.88;5.47;;;;;;;17.65;100.00;100381.94;5075562;28;20051;-89
2022/09/08 08:33:16;;;;;;;24.85;7.40;;;;;;;17.96;100.00;100430.03;5083299;28;20109;-89
2022/09/08 08:36:12;;;;;;;14.90;5.38;;;;;;;18.28;100.00;100424.16;5078290;28;20036;-89
2022/09/08 08:38:44;;;;;;;19.52;7.00;;;;;;;18.11;100.00;100414.78;5093229;28;20047;-88
2022/09/08 08:41:50;;;;;;;22.80;6.25;;;;;;;18.07;100.00;100415.16;5076587;28;20056;-89
2022/09/08 08:44:45;;;;;;;16.38;4.97;;;;;;;18.28;100.00;100429.44;5093311;28;20052;-88
2022/09/08 08:47:32;;;;;;;20.15;5.88;;;;;;;18.01;100.00;100404.06;5083122;28;20075;-88
2022/09/08 08:50:08;;;;;;;16.38;6.40;;;;;;;18.15;100.00;100428.66;5081897;28;20451;-89
2022/09/08 08:52:59;;;;;;;18.77;6.63;;;;;;;18.17;100.00;100422.31;5082349;28;20075;-89
2022/09/08 08:55:51;;;;;;;18.55;6.22;;;;;;;18.02;100.00;100412.84;5072991;28;20049;-89
2022/09/08 08:59:02;;;;;;;17.90;5.32;;;;;;;18.05;100.00;100401.19;5092737;28;20060;-89
2022/09/08 09:01:49;;;;;;;17.08;4.97;;;;;;;18.19;100.00;100411.59;5066849;28;20096;-90
2022/09/08 09:04:44;;;;;;;19.10;5.53;;;;;;;18.21;100.00;100439.66;5072282;28;20104;-93
2022/09/08 09:07:54;;;;;;;16.25;5.30;;;;;;;18.10;100.00;100428.19;5081220;28;20033;-91
2022/09/08 09:10:34;;;;;;;20.38;6.90;;;;;;;18.00;100.00;100431.50;5086807;28;20030;-92
2022/09/08 09:13:34;;;;;;;17.15;6.38;;;;;;;17.99;100.00;100426.34;5097701;28;20059;-92
2022/09/08 09:16:34;;;;;;;23.70;6.97;;;;;;;17.82;100.00;100433.66;5097474;28;20040;-92
2022/09/08 09:19:23;;;;;;;18.17;6.30;;;;;;;18.19;100.00;100428.34;5092328;28;20040;-93
2022/09/08 09:22:37;;;;;;;18.48;5.50;;;;;;;18.58;100.00;100436.06;5098479;28;20088;-92
2022/09/08 09:25:28;;;;;;;15.07;5.15;;;;;;;18.43;100.00;100416.84;5094491;28;20056;-92
2022/09/08 09:28:36;;;;;;;22.92;8.45;;;;;;;18.22;100.00;100435.22;5098307;28;20044;-92
2022/09/08 09:32:04;;;;;;;17.25;6.40;;;;;;;18.27;100.00;100425.09;5098880;28;20039;-93
2022/09/08 09:35:07;;;;;;;18.13;5.65;;;;;;;18.34;100.00;100436.97;5078176;28;20032;-92
2022/09/08 09:38:05;;;;;;;17.52;5.03;;;;;;;18.27;100.00;100441.00;5078489;28;20056;-91
2022/09/08 09:41:03;;;;;;;17.00;5.80;;;;;;;18.19;100.00;100436.28;5080783;28;20031;-92
2022/09/08 09:43:46;;;;;;;16.52;5.95;;;;;;;18.41;100.00;100434.66;5082421;28;20436;-93
2022/09/08 09:46:51;;;;;;;16.15;5.50;;;;;;;18.21;100.00;100422.91;5098380;28;20032;-93
2022/09/08 09:49:38;;;;;;;15.63;6.13;;;;;;;18.57;100.00;100439.66;5111196;28;20052;-94
2022/09/08 09:52:25;;;;;;;18.50;5.47;;;;;;;18.36;100.00;100444.75;5099431;28;20063;-94
2022/09/08 09:55:27;;;;;;;17.48;5.40;;;;;;;18.38;100.00;100430.47;5078918;28;20032;-94
2022/09/08 09:58:42;;;;;;;14.75;5.03;;;;;;;18.82;100.00;100432.50;5093085;28;20138;-94
2022/09/08 10:05:18;;;;;;;16.73;4.65;;;;;;;18.62;100.00;100350.00;5193568;23;20069;-95
2022/09/08 10:08:29;;;;;;;15.50;5.18;;;;;;;18.94;100.00;100399.72;5017318;28;20026;-95
2022/09/08 10:15:03;;;;;;;22.75;5.18;;;;;;;18.91;100.00;100394.66;5015355;28;20057;-91
2022/09/08 10:18:20;;;;;;;11.40;4.22;;;;;;;19.02;100.00;100423.03;5003054;28;20054;-90
2022/09/08 10:21:25;;;;;;;20.13;5.65;;;;;;;19.05;100.00;100423.63;4994154;28;20033;-93
2022/09/08 10:24:37;;;;;;;19.58;5.68;;;;;;;19.02;100.00;100429.16;4993780;28;20093;-94
2022/09/08 10:27:45;;;;;;;12.68;3.83;;;;;;;19.06;100.00;100417.34;4999601;28;20061;-93
2022/09/08 10:30:35;;;;;;;17.42;5.55;;;;;;;19.03;100.00;100414.91;4985857;28;20061;-94
2022/09/08 10:33:28;;;;;;;16.30;4.85;;;;;;;19.07;100.00;100432.31;5014345;28;20042;-94
2022/09/08 10:36:11;;;;;;;19.13;5.70;;;;;;;18.91;100.00;100424.69;5001922;28;20085;-95
2022/09/08 10:39:11;;;;;;;18.05;5.40;;;;;;;18.18;100.00;100325.97;4994135;28;20262;-95
2022/09/08 10:42:42;;;;;;;18.48;5.65;;;;;;;19.22;100.00;100424.94;4981128;28;20062;-94
2022/09/08 10:45:29;;;;;;;16.33;4.72;;;;;;;19.04;100.00;100416.63;4999757;28;20069;-94
2022/09/08 10:48:29;;;;;;;15.57;5.43;;;;;;;19.03;100.00;100414.91;4991743;28;20073;-93
2022/09/08 10:51:40;;;;;;;15.75;4.70;;;;;;;19.04;100.00;100421.09;4999395;28;20111;-94
2022/09/08 10:54:42;;;;;;;21.10;5.90;;;;;;;19.04;100.00;100421.09;4985398;28;20051;-93
2022/09/08 10:57:48;;;;;;;17.73;5.00;;;;;;;18.86;100.00;100418.06;4995105;28;20376;-94
2022/09/08 11:00:46;;;;;;;16.33;5.45;;;;;;;18.58;100.00;100423.63;5019478;28;20101;-95
2022/09/08 11:03:53;;;;;;;19.27;5.15;;;;;;;18.64;100.00;100398.44;5005483;28;20030;-94
2022/09/08 11:06:58;;;;;;;15.88;5.35;;;;;;;18.72;100.00;100416.44;5012108;28;20053;-94
2022/09/08 11:10:18;;;;;;;13.55;4.85;;;;;;;18.70;100.00;100419.22;4998893;28;20042;-94
2022/09/08 11:13:20;;;;;;;23.45;5.60;;;;;;;18.58;100.00;100414.84;4981215;28;20058;-94
2022/09/08 11:16:23;;;;;;;16.98;4.97;;;;;;;18.29;100.00;100385.22;4969195;28;20094;-95
2022/09/08 11:19:31;;;;;;;15.75;4.88;;;;;;;18.46;100.00;100408.66;4999945;28;20058;-94
2022/09/08 11:22:30;;;;;;;15.35;5.20;;;;;;;18.44;100.00;100428.31;4980799;28;20053;-94
2022/09/08 11:25:27;;;;;;;22.55;6.53;;;;;;;18.44;100.00;100421.19;4994788;28;20054;-95
2022/09/08 11:28:46;;;;;;;18.83;5.18;;;;;;;18.55;100.00;100420.38;4992991;28;20089;-94
2022/09/08 11:31:46;;;;;;;15.55;5.75;;;;;;;18.27;100.00;100422.44;4992943;28;20054;-95
2022/09/08 11:34:59;;;;;;;22.45;6.70;;;;;;;18.27;100.00;100433.03;5007175;28;20030;-94
2022/09/08 11:37:44;;;;;;;19.58;6.10;;;;;;;18.39;100.00;100421.53;4981825;28;20031;-95
2022/09/08 11:40:45;;;;;;;19.30;5.75;;;;;;;18.37;100.00;100417.31;5002828;28;20036;-93
2022/09/08 11:43:57;;;;;;;18.15;5.97;;;;;;;18.49;100.00;100423.50;5023277;28;20034;-94
2022/09/08 11:46:49;;;;;;;19.73;6.28;;;;;;;18.42;100.00;100422.28;5017479;28;20076;-94
2022/09/08 11:49:44;;;;;;;28.07;6.87;;;;;;;18.54;100.00;100431.97;4996977;28;20065;-94
2022/09/08 11:52:30;;;;;;;18.58;6.57;;;;;;;18.27;100.00;100426.91;5000084;28;20057;-94
2022/09/08 11:55:14;;;;;;;20.67;6.93;;;;;;;18.32;100.00;100435.38;4981079;28;20059;-94
2022/09/08 11:58:10;;;;;;;22.10;6.40;;;;;;;18.45;100.00;100430.84;4992522;28;20046;-92
2022/09/08 12:00:58;;;;;;;22.33;5.90;;;;;;;18.47;100.00;100418.31;4992695;28;20101;-91
2022/09/08 12:03:39;;;;;;;18.63;6.20;;;;;;;18.54;100.00;100426.66;4994467;28;20089;-92
2022/09/08 12:06:42;;;;;;;16.52;5.68;;;;;;;18.76;100.00;100428.50;4996132;28;20046;-92
2022/09/08 12:09:38;;;;;;;21.77;5.83;;;;;;;18.44;100.00;100397.34;4989650;28;20050;-92
2022/09/08 12:12:45;;;;;;;23.90;6.70;;;;;;;18.45;100.00;100420.25;4994120;28;20291;-92
2022/09/08 12:16:10;;;;;;;21.00;7.35;;;;;;;18.19;100.00;100423.03;4996265;28;20037;-89